sensor_id;sensor_type;location;lat;lon;timestamp;P1;durP1;ratioP1;P2;durP2;ratioP2
58091;SDS011;43896;48.178;11.578;2022-11-20T00:02:25;3.53;;;1.58;;
58091;SDS011;43896;48.178;11.578;2022-11-20T00:04:50;3.40;;;2.03;;
58091;SDS011;43896;48.178;11.578;2022-11-20T00:07:15;4.35;;;2.00;;
58091;SDS011;43896;48.178;11.578;2022-11-20T00:09:40;4.18;;;1.80;;
58091;SDS011;43896;48.178;11.578;2022-11-20T00:12:06;3.80;;;1.67;;
58091;SDS011;43896;48.178;11.578;2022-11-20T00:14:31;7.05;;;1.88;;
58091;SDS011;43896;48.178;11.578;2022-11-20T00:16:56;3.45;;;1.70;;
58091;SDS011;43896;48.178;11.578;2022-11-20T00:19:22;4.65;;;2.05;;
58091;SDS011;43896;48.178;11.578;2022-11-20T00:21:47;4.32;;;2.00;;
58091;SDS011;43896;48.178;11.578;2022-11-20T00:24:16;3.92;;;1.77;;
58091;SDS011;43896;48.178;11.578;2022-11-20T00:26:41;4.05;;;1.88;;
58091;SDS011;43896;48.178;11.578;2022-11-20T00:29:08;3.53;;;1.73;;
58091;SDS011;43896;48.178;11.578;2022-11-20T00:31:35;3.78;;;1.90;;
58091;SDS011;43896;48.178;11.578;2022-11-20T00:34:00;4.22;;;1.77;;
58091;SDS011;43896;48.178;11.578;2022-11-20T00:36:26;4.50;;;1.80;;
58091;SDS011;43896;48.178;11.578;2022-11-20T00:38:53;4.05;;;1.95;;
58091;SDS011;43896;48.178;11.578;2022-11-20T00:41:19;3.78;;;1.80;;
58091;SDS011;43896;48.178;11.578;2022-11-20T00:43:45;3.80;;;1.80;;
58091;SDS011;43896;48.178;11.578;2022-11-20T00:46:14;4.18;;;1.80;;
58091;SDS011;43896;48.178;11.578;2022-11-20T00:48:41;3.67;;;1.80;;
58091;SDS011;43896;48.178;11.578;2022-11-20T00:51:08;4.28;;;1.88;;
58091;SDS011;43896;48.178;11.578;2022-11-20T00:53:33;4.22;;;2.08;;
58091;SDS011;43896;48.178;11.578;2022-11-20T00:55:59;3.85;;;1.85;;
58091;SDS011;43896;48.178;11.578;2022-11-20T00:58:30;3.58;;;1.70;;
58091;SDS011;43896;48.178;11.578;2022-11-20T01:01:01;3.78;;;1.63;;
58091;SDS011;43896;48.178;11.578;2022-11-20T01:03:38;5.65;;;2.10;;
58091;SDS011;43896;48.178;11.578;2022-11-20T01:06:12;4.07;;;1.98;;
58091;SDS011;43896;48.178;11.578;2022-11-20T01:08:40;4.50;;;2.10;;
58091;SDS011;43896;48.178;11.578;2022-11-20T01:11:06;4.65;;;1.98;;
58091;SDS011;43896;48.178;11.578;2022-11-20T01:13:35;3.73;;;1.93;;
58091;SDS011;43896;48.178;11.578;2022-11-20T01:16:05;3.75;;;1.80;;
58091;SDS011;43896;48.178;11.578;2022-11-20T01:18:38;5.03;;;2.00;;
58091;SDS011;43896;48.178;11.578;2022-11-20T01:21:06;3.38;;;1.60;;
58091;SDS011;43896;48.178;11.578;2022-11-20T01:23:34;4.97;;;2.30;;
58091;SDS011;43896;48.178;11.578;2022-11-20T01:26:01;4.22;;;2.03;;
58091;SDS011;43896;48.178;11.578;2022-11-20T01:28:28;5.57;;;2.03;;
58091;SDS011;43896;48.178;11.578;2022-11-20T01:30:54;4.18;;;2.00;;
58091;SDS011;43896;48.178;11.578;2022-11-20T01:33:19;4.45;;;2.25;;
58091;SDS011;43896;48.178;11.578;2022-11-20T01:35:44;6.57;;;2.05;;
58091;SDS011;43896;48.178;11.578;2022-11-20T01:38:10;5.15;;;2.25;;
58091;SDS011;43896;48.178;11.578;2022-11-20T01:40:35;5.00;;;2.03;;
58091;SDS011;43896;48.178;11.578;2022-11-20T01:43:21;4.30;;;2.30;;
58091;SDS011;43896;48.178;11.578;2022-11-20T01:48:49;4.88;;;2.10;;
58091;SDS011;43896;48.178;11.578;2022-11-20T01:53:48;3.67;;;1.90;;
58091;SDS011;43896;48.178;11.578;2022-11-20T01:56:15;3.85;;;1.92;;
58091;SDS011;43896;48.178;11.578;2022-11-20T01:58:42;4.53;;;2.15;;
58091;SDS011;43896;48.178;11.578;2022-11-20T02:01:13;4.30;;;2.03;;
58091;SDS011;43896;48.178;11.578;2022-11-20T02:03:39;4.55;;;1.80;;
58091;SDS011;43896;48.178;11.578;2022-11-20T02:08:31;4.13;;;2.25;;
58091;SDS011;43896;48.178;11.578;2022-11-20T02:10:57;4.35;;;2.30;;
58091;SDS011;43896;48.178;11.578;2022-11-20T02:13:23;4.45;;;1.90;;
58091;SDS011;43896;48.178;11.578;2022-11-20T02:16:11;4.13;;;1.83;;
58091;SDS011;43896;48.178;11.578;2022-11-20T02:18:39;4.35;;;2.35;;
58091;SDS011;43896;48.178;11.578;2022-11-20T02:21:17;3.90;;;1.90;;
58091;SDS011;43896;48.178;11.578;2022-11-20T02:26:40;3.75;;;1.90;;
58091;SDS011;43896;48.178;11.578;2022-11-20T02:29:09;3.90;;;1.92;;
58091;SDS011;43896;48.178;11.578;2022-11-20T02:31:38;3.65;;;1.90;;
58091;SDS011;43896;48.178;11.578;2022-11-20T02:34:07;5.68;;;2.30;;
58091;SDS011;43896;48.178;11.578;2022-11-20T02:36:33;4.22;;;1.85;;
58091;SDS011;43896;48.178;11.578;2022-11-20T02:39:00;4.70;;;2.00;;
58091;SDS011;43896;48.178;11.578;2022-11-20T02:41:33;4.25;;;2.17;;
58091;SDS011;43896;48.178;11.578;2022-11-20T02:44:00;4.38;;;2.17;;
58091;SDS011;43896;48.178;11.578;2022-11-20T02:46:25;4.53;;;2.10;;
58091;SDS011;43896;48.178;11.578;2022-11-20T02:48:51;4.28;;;2.15;;
58091;SDS011;43896;48.178;11.578;2022-11-20T02:51:16;4.78;;;2.25;;
58091;SDS011;43896;48.178;11.578;2022-11-20T02:53:42;4.55;;;2.15;;
58091;SDS011;43896;48.178;11.578;2022-11-20T02:56:07;4.88;;;2.30;;
58091;SDS011;43896;48.178;11.578;2022-11-20T02:58:32;4.78;;;2.20;;
58091;SDS011;43896;48.178;11.578;2022-11-20T03:00:58;4.38;;;2.15;;
58091;SDS011;43896;48.178;11.578;2022-11-20T03:03:23;4.82;;;2.40;;
58091;SDS011;43896;48.178;11.578;2022-11-20T03:05:48;4.95;;;2.35;;
58091;SDS011;43896;48.178;11.578;2022-11-20T03:08:13;4.72;;;2.30;;
58091;SDS011;43896;48.178;11.578;2022-11-20T03:10:39;4.40;;;2.10;;
58091;SDS011;43896;48.178;11.578;2022-11-20T03:13:04;4.75;;;2.20;;
58091;SDS011;43896;48.178;11.578;2022-11-20T03:15:30;4.18;;;1.92;;
58091;SDS011;43896;48.178;11.578;2022-11-20T03:17:55;4.63;;;2.00;;
58091;SDS011;43896;48.178;11.578;2022-11-20T03:20:21;4.47;;;2.20;;
58091;SDS011;43896;48.178;11.578;2022-11-20T03:22:46;3.78;;;2.00;;
58091;SDS011;43896;48.178;11.578;2022-11-20T03:25:11;4.07;;;1.90;;
58091;SDS011;43896;48.178;11.578;2022-11-20T03:27:37;4.40;;;1.98;;
58091;SDS011;43896;48.178;11.578;2022-11-20T03:30:02;3.83;;;2.00;;
58091;SDS011;43896;48.178;11.578;2022-11-20T03:32:28;4.72;;;2.15;;
58091;SDS011;43896;48.178;11.578;2022-11-20T03:34:54;3.63;;;2.05;;
58091;SDS011;43896;48.178;11.578;2022-11-20T03:37:19;4.03;;;1.85;;
58091;SDS011;43896;48.178;11.578;2022-11-20T03:39:44;5.22;;;2.10;;
58091;SDS011;43896;48.178;11.578;2022-11-20T03:42:09;3.83;;;2.00;;
58091;SDS011;43896;48.178;11.578;2022-11-20T03:44:53;5.38;;;2.20;;
58091;SDS011;43896;48.178;11.578;2022-11-20T03:47:18;4.70;;;2.30;;
58091;SDS011;43896;48.178;11.578;2022-11-20T03:49:44;3.63;;;1.92;;
58091;SDS011;43896;48.178;11.578;2022-11-20T03:52:09;4.47;;;2.15;;
58091;SDS011;43896;48.178;11.578;2022-11-20T03:54:34;4.72;;;2.10;;
58091;SDS011;43896;48.178;11.578;2022-11-20T03:57:00;3.40;;;1.75;;
58091;SDS011;43896;48.178;11.578;2022-11-20T03:59:25;4.60;;;1.80;;
58091;SDS011;43896;48.178;11.578;2022-11-20T04:01:50;5.30;;;2.10;;
58091;SDS011;43896;48.178;11.578;2022-11-20T04:04:15;4.20;;;2.25;;
58091;SDS011;43896;48.178;11.578;2022-11-20T04:06:41;4.60;;;2.20;;
58091;SDS011;43896;48.178;11.578;2022-11-20T04:09:06;4.45;;;2.13;;
58091;SDS011;43896;48.178;11.578;2022-11-20T04:11:33;4.53;;;2.20;;
58091;SDS011;43896;48.178;11.578;2022-11-20T04:14:00;4.68;;;1.92;;
58091;SDS011;43896;48.178;11.578;2022-11-20T04:16:31;4.25;;;1.85;;
58091;SDS011;43896;48.178;11.578;2022-11-20T04:18:59;4.60;;;2.10;;
58091;SDS011;43896;48.178;11.578;2022-11-20T04:21:27;4.78;;;1.88;;
58091;SDS011;43896;48.178;11.578;2022-11-20T04:23:53;3.80;;;1.80;;
58091;SDS011;43896;48.178;11.578;2022-11-20T04:26:19;3.65;;;1.80;;
58091;SDS011;43896;48.178;11.578;2022-11-20T04:28:45;3.42;;;1.63;;
58091;SDS011;43896;48.178;11.578;2022-11-20T04:31:11;4.03;;;1.70;;
58091;SDS011;43896;48.178;11.578;2022-11-20T04:33:39;4.93;;;1.80;;
58091;SDS011;43896;48.178;11.578;2022-11-20T04:36:15;4.93;;;2.00;;
58091;SDS011;43896;48.178;11.578;2022-11-20T04:38:44;3.88;;;1.75;;
58091;SDS011;43896;48.178;11.578;2022-11-20T04:41:18;4.53;;;2.10;;
58091;SDS011;43896;48.178;11.578;2022-11-20T04:43:51;4.13;;;1.80;;
58091;SDS011;43896;48.178;11.578;2022-11-20T04:46:23;4.68;;;2.08;;
58091;SDS011;43896;48.178;11.578;2022-11-20T04:48:48;4.30;;;1.90;;
58091;SDS011;43896;48.178;11.578;2022-11-20T04:51:14;4.20;;;1.92;;
58091;SDS011;43896;48.178;11.578;2022-11-20T04:53:39;3.65;;;1.73;;
58091;SDS011;43896;48.178;11.578;2022-11-20T04:56:05;3.20;;;1.65;;
58091;SDS011;43896;48.178;11.578;2022-11-20T04:58:33;4.55;;;2.00;;
58091;SDS011;43896;48.178;11.578;2022-11-20T05:01:02;4.53;;;1.88;;
58091;SDS011;43896;48.178;11.578;2022-11-20T05:03:32;4.13;;;1.95;;
58091;SDS011;43896;48.178;11.578;2022-11-20T05:06:01;4.60;;;2.17;;
58091;SDS011;43896;48.178;11.578;2022-11-20T05:08:29;4.47;;;2.03;;
58091;SDS011;43896;48.178;11.578;2022-11-20T05:11:06;4.13;;;1.90;;
58091;SDS011;43896;48.178;11.578;2022-11-20T05:13:32;5.03;;;1.90;;
58091;SDS011;43896;48.178;11.578;2022-11-20T05:16:05;4.63;;;2.20;;
58091;SDS011;43896;48.178;11.578;2022-11-20T05:18:35;4.13;;;2.10;;
58091;SDS011;43896;48.178;11.578;2022-11-20T05:21:01;4.90;;;1.90;;
58091;SDS011;43896;48.178;11.578;2022-11-20T05:23:27;5.50;;;2.20;;
58091;SDS011;43896;48.178;11.578;2022-11-20T05:25:55;3.60;;;1.88;;
58091;SDS011;43896;48.178;11.578;2022-11-20T05:28:21;3.50;;;1.70;;
58091;SDS011;43896;48.178;11.578;2022-11-20T05:30:47;4.13;;;2.00;;
58091;SDS011;43896;48.178;11.578;2022-11-20T05:33:13;4.85;;;2.05;;
58091;SDS011;43896;48.178;11.578;2022-11-20T05:35:38;4.18;;;1.90;;
58091;SDS011;43896;48.178;11.578;2022-11-20T05:38:03;4.75;;;2.00;;
58091;SDS011;43896;48.178;11.578;2022-11-20T05:40:29;4.28;;;1.90;;
58091;SDS011;43896;48.178;11.578;2022-11-20T05:42:54;3.83;;;2.10;;
58091;SDS011;43896;48.178;11.578;2022-11-20T05:45:19;4.25;;;2.17;;
58091;SDS011;43896;48.178;11.578;2022-11-20T05:47:45;4.00;;;2.00;;
58091;SDS011;43896;48.178;11.578;2022-11-20T05:50:10;4.68;;;2.08;;
58091;SDS011;43896;48.178;11.578;2022-11-20T05:52:35;4.20;;;2.05;;
58091;SDS011;43896;48.178;11.578;2022-11-20T05:55:01;4.25;;;1.90;;
58091;SDS011;43896;48.178;11.578;2022-11-20T05:57:26;4.25;;;1.90;;
58091;SDS011;43896;48.178;11.578;2022-11-20T05:59:52;4.80;;;2.17;;
58091;SDS011;43896;48.178;11.578;2022-11-20T06:02:17;4.05;;;2.08;;
58091;SDS011;43896;48.178;11.578;2022-11-20T06:04:42;4.47;;;2.10;;
58091;SDS011;43896;48.178;11.578;2022-11-20T06:07:08;3.70;;;1.98;;
58091;SDS011;43896;48.178;11.578;2022-11-20T06:09:33;4.05;;;1.90;;
58091;SDS011;43896;48.178;11.578;2022-11-20T06:11:59;4.57;;;1.83;;
58091;SDS011;43896;48.178;11.578;2022-11-20T06:14:24;4.82;;;2.10;;
58091;SDS011;43896;48.178;11.578;2022-11-20T06:16:49;3.70;;;2.00;;
58091;SDS011;43896;48.178;11.578;2022-11-20T06:19:15;4.47;;;2.00;;
58091;SDS011;43896;48.178;11.578;2022-11-20T06:21:41;3.97;;;1.73;;
58091;SDS011;43896;48.178;11.578;2022-11-20T06:24:06;4.00;;;1.85;;
58091;SDS011;43896;48.178;11.578;2022-11-20T06:26:34;4.47;;;1.90;;
58091;SDS011;43896;48.178;11.578;2022-11-20T06:28:59;4.65;;;1.95;;
58091;SDS011;43896;48.178;11.578;2022-11-20T06:31:25;4.75;;;2.10;;
58091;SDS011;43896;48.178;11.578;2022-11-20T06:33:51;3.65;;;1.90;;
58091;SDS011;43896;48.178;11.578;2022-11-20T06:36:18;3.67;;;2.00;;
58091;SDS011;43896;48.178;11.578;2022-11-20T06:38:45;4.88;;;1.92;;
58091;SDS011;43896;48.178;11.578;2022-11-20T06:41:11;4.63;;;2.00;;
58091;SDS011;43896;48.178;11.578;2022-11-20T06:43:39;3.65;;;1.83;;
58091;SDS011;43896;48.178;11.578;2022-11-20T06:46:04;3.92;;;1.85;;
58091;SDS011;43896;48.178;11.578;2022-11-20T06:48:31;3.92;;;1.90;;
58091;SDS011;43896;48.178;11.578;2022-11-20T06:50:56;3.92;;;1.90;;
58091;SDS011;43896;48.178;11.578;2022-11-20T06:53:23;3.40;;;1.50;;
58091;SDS011;43896;48.178;11.578;2022-11-20T06:55:49;3.50;;;1.73;;
58091;SDS011;43896;48.178;11.578;2022-11-20T06:58:15;3.92;;;1.52;;
58091;SDS011;43896;48.178;11.578;2022-11-20T07:00:41;3.53;;;1.70;;
58091;SDS011;43896;48.178;11.578;2022-11-20T07:03:07;3.10;;;1.50;;
58091;SDS011;43896;48.178;11.578;2022-11-20T07:05:34;3.42;;;1.70;;
58091;SDS011;43896;48.178;11.578;2022-11-20T07:08:01;3.13;;;1.50;;
58091;SDS011;43896;48.178;11.578;2022-11-20T07:10:27;3.00;;;1.40;;
58091;SDS011;43896;48.178;11.578;2022-11-20T07:12:52;3.50;;;1.70;;
58091;SDS011;43896;48.178;11.578;2022-11-20T07:15:19;3.38;;;1.50;;
58091;SDS011;43896;48.178;11.578;2022-11-20T07:17:45;3.33;;;1.60;;
58091;SDS011;43896;48.178;11.578;2022-11-20T07:20:11;3.63;;;1.60;;
58091;SDS011;43896;48.178;11.578;2022-11-20T07:22:36;3.63;;;1.58;;
58091;SDS011;43896;48.178;11.578;2022-11-20T07:25:02;3.70;;;1.60;;
58091;SDS011;43896;48.178;11.578;2022-11-20T07:27:28;4.32;;;1.80;;
58091;SDS011;43896;48.178;11.578;2022-11-20T07:29:54;4.47;;;1.63;;
58091;SDS011;43896;48.178;11.578;2022-11-20T07:32:19;4.15;;;1.67;;
58091;SDS011;43896;48.178;11.578;2022-11-20T07:34:45;3.75;;;1.50;;
58091;SDS011;43896;48.178;11.578;2022-11-20T07:37:10;3.58;;;1.65;;
58091;SDS011;43896;48.178;11.578;2022-11-20T07:39:35;4.10;;;1.65;;
58091;SDS011;43896;48.178;11.578;2022-11-20T07:42:01;3.72;;;1.70;;
58091;SDS011;43896;48.178;11.578;2022-11-20T07:44:26;3.47;;;1.50;;
58091;SDS011;43896;48.178;11.578;2022-11-20T07:46:51;3.85;;;1.60;;
58091;SDS011;43896;48.178;11.578;2022-11-20T07:49:17;3.35;;;1.50;;
58091;SDS011;43896;48.178;11.578;2022-11-20T07:51:42;3.65;;;1.60;;
58091;SDS011;43896;48.178;11.578;2022-11-20T07:54:07;3.63;;;1.55;;
58091;SDS011;43896;48.178;11.578;2022-11-20T07:56:32;4.20;;;1.65;;
58091;SDS011;43896;48.178;11.578;2022-11-20T07:58:58;4.70;;;2.20;;
58091;SDS011;43896;48.178;11.578;2022-11-20T08:01:23;4.45;;;1.90;;
58091;SDS011;43896;48.178;11.578;2022-11-20T08:03:48;4.05;;;1.80;;
58091;SDS011;43896;48.178;11.578;2022-11-20T08:06:14;4.32;;;1.92;;
58091;SDS011;43896;48.178;11.578;2022-11-20T08:08:39;3.78;;;1.80;;
58091;SDS011;43896;48.178;11.578;2022-11-20T08:11:05;4.03;;;1.92;;
58091;SDS011;43896;48.178;11.578;2022-11-20T08:13:49;5.25;;;1.90;;
58091;SDS011;43896;48.178;11.578;2022-11-20T08:16:33;3.85;;;1.98;;
58091;SDS011;43896;48.178;11.578;2022-11-20T08:18:58;4.68;;;1.83;;
58091;SDS011;43896;48.178;11.578;2022-11-20T08:21:24;4.72;;;1.83;;
58091;SDS011;43896;48.178;11.578;2022-11-20T08:23:49;4.20;;;2.00;;
58091;SDS011;43896;48.178;11.578;2022-11-20T08:26:14;3.50;;;1.75;;
58091;SDS011;43896;48.178;11.578;2022-11-20T08:28:40;4.38;;;1.90;;
58091;SDS011;43896;48.178;11.578;2022-11-20T08:31:05;4.13;;;2.00;;
58091;SDS011;43896;48.178;11.578;2022-11-20T08:33:30;3.67;;;2.00;;
58091;SDS011;43896;48.178;11.578;2022-11-20T08:35:58;4.68;;;1.98;;
58091;SDS011;43896;48.178;11.578;2022-11-20T08:38:27;4.03;;;1.80;;
58091;SDS011;43896;48.178;11.578;2022-11-20T08:40:55;3.47;;;1.55;;
58091;SDS011;43896;48.178;11.578;2022-11-20T08:43:40;3.58;;;1.67;;
58091;SDS011;43896;48.178;11.578;2022-11-20T08:46:05;3.30;;;1.80;;
58091;SDS011;43896;48.178;11.578;2022-11-20T08:48:30;3.47;;;1.60;;
58091;SDS011;43896;48.178;11.578;2022-11-20T08:50:57;3.17;;;1.63;;
58091;SDS011;43896;48.178;11.578;2022-11-20T08:53:24;4.65;;;1.80;;
58091;SDS011;43896;48.178;11.578;2022-11-20T08:55:49;4.72;;;1.92;;
58091;SDS011;43896;48.178;11.578;2022-11-20T08:58:14;3.50;;;1.70;;
58091;SDS011;43896;48.178;11.578;2022-11-20T09:00:40;3.40;;;1.67;;
58091;SDS011;43896;48.178;11.578;2022-11-20T09:03:05;3.75;;;1.90;;
58091;SDS011;43896;48.178;11.578;2022-11-20T09:05:30;3.40;;;1.48;;
58091;SDS011;43896;48.178;11.578;2022-11-20T09:07:58;3.85;;;1.60;;
58091;SDS011;43896;48.178;11.578;2022-11-20T09:10:24;3.47;;;1.60;;
58091;SDS011;43896;48.178;11.578;2022-11-20T09:12:50;4.18;;;1.80;;
58091;SDS011;43896;48.178;11.578;2022-11-20T09:15:16;4.05;;;1.90;;
58091;SDS011;43896;48.178;11.578;2022-11-20T09:17:42;3.28;;;1.60;;
58091;SDS011;43896;48.178;11.578;2022-11-20T09:20:15;4.10;;;1.88;;
58091;SDS011;43896;48.178;11.578;2022-11-20T09:22:41;3.42;;;1.73;;
58091;SDS011;43896;48.178;11.578;2022-11-20T09:25:06;4.10;;;1.70;;
58091;SDS011;43896;48.178;11.578;2022-11-20T09:27:32;3.38;;;1.65;;
58091;SDS011;43896;48.178;11.578;2022-11-20T09:29:57;3.00;;;1.55;;
58091;SDS011;43896;48.178;11.578;2022-11-20T09:32:22;4.47;;;1.60;;
58091;SDS011;43896;48.178;11.578;2022-11-20T09:34:47;4.43;;;1.80;;
58091;SDS011;43896;48.178;11.578;2022-11-20T09:37:13;3.75;;;1.42;;
58091;SDS011;43896;48.178;11.578;2022-11-20T09:39:38;3.38;;;1.60;;
58091;SDS011;43896;48.178;11.578;2022-11-20T09:44:54;4.22;;;1.70;;
58091;SDS011;43896;48.178;11.578;2022-11-20T09:50:23;2.97;;;1.30;;
58091;SDS011;43896;48.178;11.578;2022-11-20T09:55:35;3.47;;;1.40;;
58091;SDS011;43896;48.178;11.578;2022-11-20T09:58:02;3.22;;;1.38;;
58091;SDS011;43896;48.178;11.578;2022-11-20T10:00:31;3.05;;;1.25;;
58091;SDS011;43896;48.178;11.578;2022-11-20T10:03:11;3.78;;;1.30;;
58091;SDS011;43896;48.178;11.578;2022-11-20T10:05:43;2.63;;;1.17;;
58091;SDS011;43896;48.178;11.578;2022-11-20T10:08:33;3.20;;;1.48;;
58091;SDS011;43896;48.178;11.578;2022-11-20T10:13:58;2.35;;;1.20;;
58091;SDS011;43896;48.178;11.578;2022-11-20T10:16:44;4.47;;;1.40;;
58091;SDS011;43896;48.178;11.578;2022-11-20T10:19:18;3.60;;;1.50;;
58091;SDS011;43896;48.178;11.578;2022-11-20T10:24:52;3.17;;;1.25;;
58091;SDS011;43896;48.178;11.578;2022-11-20T10:30:12;3.42;;;1.35;;
58091;SDS011;43896;48.178;11.578;2022-11-20T10:32:43;4.03;;;1.30;;
58091;SDS011;43896;48.178;11.578;2022-11-20T10:35:17;3.05;;;1.30;;
58091;SDS011;43896;48.178;11.578;2022-11-20T10:37:44;2.78;;;1.30;;
58091;SDS011;43896;48.178;11.578;2022-11-20T10:40:20;3.22;;;1.40;;
58091;SDS011;43896;48.178;11.578;2022-11-20T10:43:01;3.83;;;1.50;;
58091;SDS011;43896;48.178;11.578;2022-11-20T10:45:34;2.60;;;1.20;;
58091;SDS011;43896;48.178;11.578;2022-11-20T10:50:32;2.45;;;1.10;;
58091;SDS011;43896;48.178;11.578;2022-11-20T10:53:05;3.30;;;1.45;;
58091;SDS011;43896;48.178;11.578;2022-11-20T11:01:27;2.30;;;1.10;;
58091;SDS011;43896;48.178;11.578;2022-11-20T11:03:53;2.30;;;1.10;;
58091;SDS011;43896;48.178;11.578;2022-11-20T11:08:58;2.00;;;0.90;;
58091;SDS011;43896;48.178;11.578;2022-11-20T11:11:27;3.38;;;0.98;;
58091;SDS011;43896;48.178;11.578;2022-11-20T11:14:14;2.00;;;0.90;;
58091;SDS011;43896;48.178;11.578;2022-11-20T11:16:50;2.03;;;0.80;;
58091;SDS011;43896;48.178;11.578;2022-11-20T11:19:19;2.47;;;1.00;;
58091;SDS011;43896;48.178;11.578;2022-11-20T11:22:16;2.15;;;1.10;;
58091;SDS011;43896;48.178;11.578;2022-11-20T11:24:43;2.70;;;1.20;;
58091;SDS011;43896;48.178;11.578;2022-11-20T11:27:16;1.92;;;0.98;;
58091;SDS011;43896;48.178;11.578;2022-11-20T11:29:42;2.15;;;1.00;;
58091;SDS011;43896;48.178;11.578;2022-11-20T11:32:10;2.55;;;1.20;;
58091;SDS011;43896;48.178;11.578;2022-11-20T11:34:37;2.75;;;1.15;;
58091;SDS011;43896;48.178;11.578;2022-11-20T11:37:02;3.35;;;1.20;;
58091;SDS011;43896;48.178;11.578;2022-11-20T11:39:30;3.53;;;1.30;;
58091;SDS011;43896;48.178;11.578;2022-11-20T11:41:57;2.10;;;1.10;;
58091;SDS011;43896;48.178;11.578;2022-11-20T11:44:24;5.38;;;1.10;;
58091;SDS011;43896;48.178;11.578;2022-11-20T11:47:21;2.95;;;1.20;;
58091;SDS011;43896;48.178;11.578;2022-11-20T11:49:49;3.15;;;1.40;;
58091;SDS011;43896;48.178;11.578;2022-11-20T11:52:25;2.78;;;1.27;;
58091;SDS011;43896;48.178;11.578;2022-11-20T11:54:55;2.65;;;1.20;;
58091;SDS011;43896;48.178;11.578;2022-11-20T12:00:14;3.38;;;1.33;;
58091;SDS011;43896;48.178;11.578;2022-11-20T12:07:42;2.22;;;1.05;;
58091;SDS011;43896;48.178;11.578;2022-11-20T12:10:29;2.95;;;1.20;;
58091;SDS011;43896;48.178;11.578;2022-11-20T12:13:10;3.13;;;1.27;;
58091;SDS011;43896;48.178;11.578;2022-11-20T12:15:46;2.28;;;0.98;;
58091;SDS011;43896;48.178;11.578;2022-11-20T12:18:14;2.80;;;0.90;;
58091;SDS011;43896;48.178;11.578;2022-11-20T12:20:44;2.40;;;1.10;;
58091;SDS011;43896;48.178;11.578;2022-11-20T12:23:18;2.40;;;0.98;;
58091;SDS011;43896;48.178;11.578;2022-11-20T12:25:53;2.35;;;1.00;;
58091;SDS011;43896;48.178;11.578;2022-11-20T12:28:45;2.50;;;1.00;;
58091;SDS011;43896;48.178;11.578;2022-11-20T12:31:42;2.97;;;1.27;;
58091;SDS011;43896;48.178;11.578;2022-11-20T12:36:56;3.00;;;1.20;;
58091;SDS011;43896;48.178;11.578;2022-11-20T12:39:49;1.98;;;0.95;;
58091;SDS011;43896;48.178;11.578;2022-11-20T12:42:36;3.30;;;1.55;;
58091;SDS011;43896;48.178;11.578;2022-11-20T12:45:28;5.13;;;1.60;;
58091;SDS011;43896;48.178;11.578;2022-11-20T13:01:48;2.85;;;1.45;;
58091;SDS011;43896;48.178;11.578;2022-11-20T13:07:05;3.00;;;1.23;;
58091;SDS011;43896;48.178;11.578;2022-11-20T13:09:33;2.63;;;1.17;;
58091;SDS011;43896;48.178;11.578;2022-11-20T13:12:11;3.33;;;1.35;;
58091;SDS011;43896;48.178;11.578;2022-11-20T13:14:45;2.85;;;1.20;;
58091;SDS011;43896;48.178;11.578;2022-11-20T13:17:51;2.70;;;1.20;;
58091;SDS011;43896;48.178;11.578;2022-11-20T13:20:18;2.72;;;1.30;;
58091;SDS011;43896;48.178;11.578;2022-11-20T13:27:49;3.07;;;1.20;;
58091;SDS011;43896;48.178;11.578;2022-11-20T13:30:16;2.03;;;1.10;;
58091;SDS011;43896;48.178;11.578;2022-11-20T13:32:56;2.40;;;1.05;;
58091;SDS011;43896;48.178;11.578;2022-11-20T13:38:03;3.15;;;1.52;;
58091;SDS011;43896;48.178;11.578;2022-11-20T13:40:30;2.65;;;1.27;;
58091;SDS011;43896;48.178;11.578;2022-11-20T13:45:32;4.30;;;1.63;;
58091;SDS011;43896;48.178;11.578;2022-11-20T13:48:03;3.78;;;1.40;;
58091;SDS011;43896;48.178;11.578;2022-11-20T13:53:28;2.90;;;1.23;;
58091;SDS011;43896;48.178;11.578;2022-11-20T14:02:09;3.58;;;1.48;;
58091;SDS011;43896;48.178;11.578;2022-11-20T14:04:38;3.17;;;1.40;;
58091;SDS011;43896;48.178;11.578;2022-11-20T14:07:08;3.53;;;1.52;;
58091;SDS011;43896;48.178;11.578;2022-11-20T14:09:34;3.72;;;1.70;;
58091;SDS011;43896;48.178;11.578;2022-11-20T14:12:00;4.20;;;1.63;;
58091;SDS011;43896;48.178;11.578;2022-11-20T14:14:27;3.20;;;1.30;;
58091;SDS011;43896;48.178;11.578;2022-11-20T14:19:57;2.83;;;1.30;;
58091;SDS011;43896;48.178;11.578;2022-11-20T14:22:26;3.17;;;1.48;;
58091;SDS011;43896;48.178;11.578;2022-11-20T14:27:40;2.90;;;1.50;;
58091;SDS011;43896;48.178;11.578;2022-11-20T14:30:14;3.13;;;1.30;;
58091;SDS011;43896;48.178;11.578;2022-11-20T14:32:41;4.40;;;1.50;;
58091;SDS011;43896;48.178;11.578;2022-11-20T14:35:08;3.63;;;1.60;;
58091;SDS011;43896;48.178;11.578;2022-11-20T14:37:39;4.10;;;1.40;;
58091;SDS011;43896;48.178;11.578;2022-11-20T14:40:21;4.35;;;1.42;;
58091;SDS011;43896;48.178;11.578;2022-11-20T14:42:57;4.80;;;1.75;;
58091;SDS011;43896;48.178;11.578;2022-11-20T14:45:24;3.55;;;1.40;;
58091;SDS011;43896;48.178;11.578;2022-11-20T14:47:51;2.85;;;1.40;;
58091;SDS011;43896;48.178;11.578;2022-11-20T14:50:22;3.75;;;1.38;;
58091;SDS011;43896;48.178;11.578;2022-11-20T14:52:53;3.13;;;1.30;;
58091;SDS011;43896;48.178;11.578;2022-11-20T14:58:00;3.00;;;0.93;;
58091;SDS011;43896;48.178;11.578;2022-11-20T15:00:28;1.65;;;0.90;;
58091;SDS011;43896;48.178;11.578;2022-11-20T15:02:55;1.80;;;0.90;;
58091;SDS011;43896;48.178;11.578;2022-11-20T15:05:23;2.20;;;0.70;;
58091;SDS011;43896;48.178;11.578;2022-11-20T15:07:52;1.80;;;0.82;;
58091;SDS011;43896;48.178;11.578;2022-11-20T15:19:07;2.22;;;0.85;;
58091;SDS011;43896;48.178;11.578;2022-11-20T15:21:42;1.95;;;0.85;;
58091;SDS011;43896;48.178;11.578;2022-11-20T15:24:08;2.67;;;0.70;;
58091;SDS011;43896;48.178;11.578;2022-11-20T15:26:34;2.60;;;0.80;;
58091;SDS011;43896;48.178;11.578;2022-11-20T15:28:59;2.00;;;0.90;;
58091;SDS011;43896;48.178;11.578;2022-11-20T15:31:25;3.25;;;1.20;;
58091;SDS011;43896;48.178;11.578;2022-11-20T15:33:50;2.35;;;1.00;;
58091;SDS011;43896;48.178;11.578;2022-11-20T15:36:16;3.40;;;1.20;;
58091;SDS011;43896;48.178;11.578;2022-11-20T15:38:41;2.78;;;0.88;;
58091;SDS011;43896;48.178;11.578;2022-11-20T15:41:07;1.88;;;0.80;;
58091;SDS011;43896;48.178;11.578;2022-11-20T15:43:33;2.63;;;0.90;;
58091;SDS011;43896;48.178;11.578;2022-11-20T15:48:27;2.22;;;0.80;;
58091;SDS011;43896;48.178;11.578;2022-11-20T15:53:36;2.97;;;1.10;;
58091;SDS011;43896;48.178;11.578;2022-11-20T15:56:05;2.33;;;1.10;;
58091;SDS011;43896;48.178;11.578;2022-11-20T15:58:34;2.47;;;1.00;;
58091;SDS011;43896;48.178;11.578;2022-11-20T16:00:59;3.15;;;1.23;;
58091;SDS011;43896;48.178;11.578;2022-11-20T16:03:24;3.85;;;1.30;;
58091;SDS011;43896;48.178;11.578;2022-11-20T16:05:50;3.33;;;1.23;;
58091;SDS011;43896;48.178;11.578;2022-11-20T16:08:15;3.72;;;1.20;;
58091;SDS011;43896;48.178;11.578;2022-11-20T16:10:40;3.35;;;1.20;;
58091;SDS011;43896;48.178;11.578;2022-11-20T16:13:13;2.88;;;1.30;;
58091;SDS011;43896;48.178;11.578;2022-11-20T16:15:59;3.70;;;1.50;;
58091;SDS011;43896;48.178;11.578;2022-11-20T16:18:26;3.55;;;1.50;;
58091;SDS011;43896;48.178;11.578;2022-11-20T16:20:52;3.33;;;1.40;;
58091;SDS011;43896;48.178;11.578;2022-11-20T16:23:19;3.67;;;1.52;;
58091;SDS011;43896;48.178;11.578;2022-11-20T16:25:45;4.35;;;1.55;;
58091;SDS011;43896;48.178;11.578;2022-11-20T16:28:11;4.55;;;2.10;;
58091;SDS011;43896;48.178;11.578;2022-11-20T16:30:36;3.30;;;1.40;;